createdAt,value
2022-12-03T00:00:21.451Z,10.80
2022-12-03T00:02:48.204Z,9.50
2022-12-03T00:05:15.042Z,10.70
2022-12-03T00:07:41.863Z,10.00
2022-12-03T00:10:09.008Z,9.50
2022-12-03T00:12:35.847Z,9.00
2022-12-03T00:15:02.552Z,8.50
2022-12-03T00:17:29.182Z,9.90
2022-12-03T00:19:56.028Z,10.30
2022-12-03T00:22:22.661Z,9.80
2022-12-03T00:24:49.298Z,8.40
2022-12-03T00:27:15.945Z,10.20
2022-12-03T00:29:42.699Z,10.80
2022-12-03T00:32:09.445Z,9.70
2022-12-03T00:34:36.088Z,9.20
2022-12-03T00:37:02.756Z,10.00
2022-12-03T00:39:29.392Z,9.60
2022-12-03T00:41:56.031Z,8.80
2022-12-03T00:44:22.733Z,10.70
2022-12-03T00:46:49.434Z,10.60
2022-12-03T00:49:16.194Z,8.60
2022-12-03T00:51:42.815Z,9.60
2022-12-03T00:54:09.459Z,9.10
2022-12-03T00:56:36.116Z,8.00
2022-12-03T00:59:02.743Z,8.90
2022-12-03T01:01:29.422Z,8.50
2022-12-03T01:03:56.220Z,8.30
2022-12-03T01:06:22.822Z,7.90
2022-12-03T01:08:49.462Z,8.40
2022-12-03T01:11:34.789Z,9.20
2022-12-03T01:14:01.405Z,8.00
2022-12-03T01:16:28.124Z,7.70
2022-12-03T01:18:54.788Z,8.70
2022-12-03T01:21:21.422Z,8.80
2022-12-03T01:23:48.155Z,8.80
2022-12-03T01:26:14.793Z,9.60
2022-12-03T01:28:44.705Z,8.20
2022-12-03T01:31:30.310Z,7.70
2022-12-03T01:33:57.033Z,9.10
2022-12-03T01:36:23.659Z,8.20
2022-12-03T01:38:50.296Z,8.50
2022-12-03T01:41:17.674Z,9.90
2022-12-03T01:43:44.369Z,8.00
2022-12-03T01:46:13.577Z,8.20
2022-12-03T01:48:41.154Z,7.10
2022-12-03T01:51:07.843Z,7.80
2022-12-03T01:53:34.646Z,7.60
2022-12-03T01:56:01.429Z,9.00
2022-12-03T01:58:28.608Z,8.20
2022-12-03T02:00:56.809Z,7.90
2022-12-03T02:03:24.898Z,7.80
2022-12-03T02:05:52.312Z,7.20
2022-12-03T02:08:33.777Z,6.90
2022-12-03T02:11:15.528Z,7.00
2022-12-03T02:13:42.187Z,7.70
2022-12-03T02:16:08.899Z,8.00
2022-12-03T02:18:35.536Z,7.90
2022-12-03T02:21:12.222Z,7.60
2022-12-03T02:23:52.253Z,8.90
2022-12-03T02:26:18.874Z,7.80
2022-12-03T02:28:45.563Z,9.00
2022-12-03T02:31:12.219Z,6.50
2022-12-03T02:33:38.939Z,7.90
2022-12-03T02:36:05.960Z,8.60
2022-12-03T02:38:32.713Z,8.00
2022-12-03T02:41:01.105Z,7.30
2022-12-03T02:43:27.763Z,6.80
2022-12-03T02:45:55.589Z,8.00
2022-12-03T02:48:32.507Z,8.60
2022-12-03T02:51:00.487Z,8.10
2022-12-03T02:53:33.453Z,7.60
2022-12-03T06:02:17.919Z,8.50
2022-12-03T06:04:44.717Z,8.40
2022-12-03T06:07:14.100Z,9.00
2022-12-03T06:09:41.180Z,9.40
2022-12-03T06:12:10.681Z,11.00
2022-12-03T06:14:37.330Z,9.00
2022-12-03T06:17:04.987Z,9.00
2022-12-03T06:19:31.628Z,13.00
2022-12-03T06:21:58.292Z,9.80
2022-12-03T06:24:25.922Z,11.20
2022-12-03T06:26:52.573Z,9.50
2022-12-03T06:29:19.189Z,11.10
2022-12-03T06:31:50.187Z,11.50
2022-12-03T06:34:16.838Z,10.40
2022-12-03T06:36:43.490Z,10.80
2022-12-03T06:39:10.208Z,10.30
2022-12-03T06:41:36.899Z,10.50
2022-12-03T06:44:03.591Z,10.00
2022-12-03T06:46:30.326Z,10.50
2022-12-03T06:48:57.011Z,11.00
2022-12-03T06:51:23.636Z,11.00
2022-12-03T06:53:50.255Z,11.40
2022-12-03T06:56:20.162Z,10.80
2022-12-03T06:58:48.849Z,10.50
2022-12-03T07:01:15.479Z,11.50
2022-12-03T07:03:42.139Z,12.20
2022-12-03T07:06:08.876Z,10.60
2022-12-03T07:08:35.496Z,12.80
2022-12-03T07:11:02.197Z,12.30
2022-12-03T07:13:28.808Z,12.00
2022-12-03T07:15:55.514Z,12.30
2022-12-03T07:18:22.216Z,12.10
2022-12-03T07:20:49.028Z,13.60
2022-12-03T07:23:15.639Z,11.20
2022-12-03T07:25:42.291Z,14.80
2022-12-03T07:28:08.936Z,13.40
2022-12-03T07:30:35.556Z,12.60
2022-12-03T07:33:02.238Z,14.20
2022-12-03T07:35:28.874Z,14.00
2022-12-03T07:37:55.552Z,17.30
2022-12-03T07:40:22.195Z,15.80
2022-12-03T07:42:48.836Z,13.60
2022-12-03T07:45:15.477Z,15.60
2022-12-03T07:47:42.144Z,13.80
2022-12-03T07:50:10.592Z,15.30
2022-12-03T07:52:37.285Z,14.10
2022-12-03T07:55:04.328Z,18.40
2022-12-03T07:57:30.993Z,14.00
2022-12-03T07:59:57.604Z,16.20
2022-12-03T08:02:24.277Z,14.10
2022-12-03T08:04:51.243Z,15.50
2022-12-03T08:07:18.082Z,14.50
2022-12-03T08:09:44.890Z,13.90
2022-12-03T08:12:22.887Z,13.90
2022-12-03T08:14:49.736Z,14.70
2022-12-03T08:17:18.569Z,15.50
2022-12-03T08:19:46.822Z,14.60
2022-12-03T08:22:14.140Z,13.50
2022-12-03T08:24:41.049Z,12.10
2022-12-03T08:27:16.731Z,15.20
2022-12-03T08:29:43.519Z,14.60
2022-12-03T08:32:13.661Z,15.00
2022-12-03T08:34:41.936Z,14.50
2022-12-03T08:37:18.532Z,12.90
2022-12-03T08:39:46.718Z,14.50
2022-12-03T08:42:36.698Z,14.00
2022-12-03T08:45:21.808Z,14.80
2022-12-03T08:47:48.513Z,15.60
2022-12-03T08:50:26.877Z,14.40
2022-12-03T08:52:54.226Z,11.30
2022-12-03T08:55:34.408Z,13.90
2022-12-03T08:58:01.060Z,13.60
2022-12-03T09:00:27.786Z,11.60
2022-12-03T09:02:55.290Z,13.10
2022-12-03T09:05:23.433Z,11.50
2022-12-03T09:07:50.213Z,14.60
2022-12-03T09:10:17.002Z,14.20
2022-12-03T09:12:45.071Z,12.90
2022-12-03T09:15:12.992Z,15.20
2022-12-03T09:17:39.647Z,14.60
2022-12-03T09:20:06.884Z,14.00
2022-12-03T09:22:33.619Z,13.40
2022-12-03T09:25:00.230Z,14.50
2022-12-03T09:27:26.870Z,14.70
2022-12-03T09:29:53.481Z,16.70
2022-12-03T09:32:20.209Z,14.50
2022-12-03T09:34:47.022Z,16.40
2022-12-03T09:37:13.700Z,15.80
2022-12-03T09:39:40.358Z,16.40
2022-12-03T09:42:07.060Z,15.50
2022-12-03T09:44:33.990Z,17.30
2022-12-03T09:47:03.936Z,17.60
2022-12-03T09:49:31.798Z,16.50
2022-12-03T09:51:58.788Z,16.70
2022-12-03T09:54:26.940Z,15.90
2022-12-03T09:56:54.494Z,14.80
2022-12-03T09:59:21.186Z,14.90
2022-12-03T10:01:48.108Z,16.80
2022-12-03T10:04:14.965Z,14.50
2022-12-03T10:06:45.802Z,15.40
2022-12-03T10:09:14.530Z,17.70
2022-12-03T10:11:41.196Z,15.50
2022-12-03T10:14:11.500Z,17.00
2022-12-03T10:16:40.195Z,16.20
2022-12-03T10:19:09.501Z,17.70
2022-12-03T10:21:36.836Z,15.80
2022-12-03T10:24:25.955Z,15.90
2022-12-03T10:26:54.539Z,16.70
2022-12-03T10:29:25.851Z,17.80
2022-12-03T10:31:58.247Z,16.80
2022-12-03T10:34:26.376Z,16.50
2022-12-03T10:37:11.852Z,17.70
2022-12-03T10:40:00.643Z,17.20
2022-12-03T10:42:29.138Z,16.10
2022-12-03T10:45:16.662Z,15.70
2022-12-03T10:47:44.599Z,16.80
2022-12-03T10:50:16.958Z,16.30
2022-12-03T10:52:43.876Z,18.80
2022-12-03T10:55:12.773Z,15.60
2022-12-03T10:57:45.048Z,17.10
2022-12-03T11:00:19.402Z,13.50
2022-12-03T11:02:51.684Z,16.80
2022-12-03T15:23:36.402Z,16.20
2022-12-03T15:26:03.407Z,13.60
2022-12-03T15:28:30.063Z,14.30
2022-12-03T15:30:56.775Z,13.00
2022-12-03T15:33:23.508Z,13.20
2022-12-03T15:35:50.111Z,15.30
2022-12-03T15:38:16.911Z,13.10
2022-12-03T15:40:43.658Z,12.80
2022-12-03T15:43:10.276Z,15.30
2022-12-03T15:45:37.168Z,15.30
2022-12-03T15:48:03.995Z,13.40
2022-12-03T15:50:33.523Z,15.90
2022-12-03T15:53:02.359Z,15.50
2022-12-03T15:55:29.037Z,14.90
2022-12-03T15:57:55.676Z,14.10
2022-12-03T16:00:22.433Z,15.30
2022-12-03T16:02:52.717Z,14.80
2022-12-03T16:05:19.845Z,15.90
2022-12-03T16:07:46.543Z,17.00
2022-12-03T16:10:13.354Z,16.00
2022-12-03T16:12:40.080Z,15.20
2022-12-03T16:15:07.049Z,17.40
2022-12-03T16:17:33.932Z,16.90
2022-12-03T16:20:00.623Z,15.40
2022-12-03T16:22:27.255Z,15.00
2022-12-03T16:24:53.881Z,16.20
2022-12-03T16:27:25.312Z,15.40
2022-12-03T16:29:52.767Z,15.50
2022-12-03T16:32:19.781Z,14.80
2022-12-03T16:34:46.411Z,16.00
2022-12-03T16:37:13.160Z,13.40
2022-12-03T16:39:46.982Z,13.20
2022-12-03T16:42:17.243Z,14.90
2022-12-03T16:44:59.505Z,13.30
2022-12-03T16:47:32.075Z,13.30
2022-12-03T16:50:01.106Z,12.80
2022-12-03T16:52:27.880Z,13.70
2022-12-03T16:54:54.489Z,13.40
2022-12-03T16:57:21.130Z,13.60
2022-12-03T16:59:47.795Z,13.70
2022-12-03T17:02:14.545Z,13.30
2022-12-03T17:04:41.317Z,12.90
2022-12-03T17:07:07.993Z,12.20
2022-12-03T17:09:34.641Z,13.10
2022-12-03T17:12:01.477Z,11.00
2022-12-03T17:14:33.025Z,13.70
2022-12-03T17:17:00.204Z,11.80
2022-12-03T17:19:26.972Z,12.40
2022-12-03T17:21:54.251Z,12.10
2022-12-03T17:24:21.544Z,10.80
2022-12-03T17:26:48.271Z,10.50
2022-12-03T17:29:14.929Z,11.80
2022-12-03T17:31:42.727Z,11.10
2022-12-03T17:34:09.882Z,12.30
2022-12-03T17:36:36.538Z,11.70
2022-12-03T17:39:03.374Z,12.40
2022-12-03T17:41:30.082Z,10.20
2022-12-03T17:43:56.790Z,12.50
2022-12-03T17:46:23.505Z,12.10
2022-12-03T17:48:50.291Z,11.60
2022-12-03T17:51:17.135Z,11.60
2022-12-03T17:53:43.850Z,11.60
2022-12-03T17:56:10.569Z,12.00
2022-12-03T17:58:37.216Z,11.60
2022-12-03T18:01:05.461Z,11.90
2022-12-03T18:03:32.314Z,10.00
2022-12-03T18:05:59.100Z,10.50
2022-12-03T18:08:25.717Z,10.50
2022-12-03T18:10:52.341Z,11.70
2022-12-03T18:13:18.983Z,11.70
2022-12-03T18:15:45.648Z,11.70
2022-12-03T18:18:12.284Z,10.20
2022-12-03T18:20:38.896Z,11.80
2022-12-03T18:23:05.586Z,11.10
2022-12-03T18:25:32.859Z,11.80
2022-12-03T18:27:59.571Z,10.50
